x

South Santa Rosa Is. Ca (46069) Wave Buoy

9:50 - Thu 30th Jul 2015 All times are PDT. -7 hours from GMT.

  • Sig Wave height 4.9ft
  • Peak Period 9s
  • Average Period 6s
  • Wind
    16mph, 18mph gusts
  • Sea Temp 68°f
  • Air Temp 65°f
  • Sea Pressure 1015.1mb
  • South Santa Rosa Is. Ca
  • South Santa Rosa Is. Ca

More Historic Weather Station data

Upgrade to MSW Pro to gain access to the past 30 days of data for over 8000 Wavebouys and Weather Stations around the globe.

Join Pro

Comparision Forecast

View Surf forecast
   
jeu. 07/30 9:50 5ft 9s 6s 16 18 mph 1015.1mb 68f 65f
8:50 5ft 15s 6s 18 20 mph 1014.7mb 68f 65f
7:50 4.5ft 15s 6s 18 20 mph 1014.4mb 69f 65f
6:50 4.5ft 15s 6s 18 20 mph 1013.9mb 69f 65f
5:50 5ft 9s 6s 16 20 mph 1014.4mb 69f 65f
4:50 5ft 10s 6s 18 20 mph 1014.3mb 69f 65f
3:50 4.5ft 15s 6s 18 22 mph 1014.7mb 69f 65f
2:50 4.5ft 14s 6s 18 20 mph 1015.2mb 69f 65f
1:50 5ft 15s 7s 16 18 mph 1015.8mb 69f 65f
12:50 4ft 10s 6s 16 20 mph 1016mb 69f 64f
11:50 4.5ft 15s 6s 16 18 mph 1016.1mb 69f 64f
10:50 4.5ft 16s 7s 13 16 mph 1016.1mb 69f 64f
9:50 5.5ft 9s  -  13 16 mph 1015.8mb 69f 64f
8:50 5ft 10s 7s 13 16 mph 1015.8mb 69f 64f
7:50 5ft 15s 7s 11 18 mph 1015.5mb 69f 64f
6:50 5ft 11s 7s 13 16 mph 1014.8mb 69f 64f
5:50 5ft 10s 8s 13 16 mph 1014.4mb 68f 64f
4:50 5ft 10s 8s 13 16 mph 1014.4mb 68f 64f
3:50 5ft 15s 8s 11 13 mph 1014.5mb 68f 64f
2:50 5ft 9s 8s 9 11 mph 1014.7mb 68f 64f
1:50 5ft 17s 8s 11 16 mph 1014.3mb 68f 64f
12:50 5ft 10s 8s 9 13 mph 1014.7mb 68f 64f
mer. 07/29 11:50 5.5ft 16s 8s 9 11 mph 1014.7mb 68f 64f
10:50 4.5ft 11s 7s 13 16 mph 1014mb 68f 65f
9:50 5ft 15s 7s 13 16 mph 1013.7mb 68f 65f
8:50 5ft 15s 7s 16 18 mph 1013.1mb 68f 65f
7:50 5ft 11s 7s 13 18 mph 1012.7mb 69f 64f
6:50 5ft 16s 8s 16 18 mph 1012.7mb 69f 64f
5:50 5.5ft 15s 8s 16 18 mph 1012.6mb 69f 64f
4:50 6ft 9s 8s 11 13 mph 1013mb 69f 64f
3:50 5ft 15s 8s 11 13 mph 1013.4mb 69f 64f
2:50 5.5ft 15s 8s 9 11 mph 1014mb 69f 64f
1:50 5ft 8s 8s 11 16 mph 1014.1mb 69f 64f
12:50 5.5ft 15s 8s 7 9 mph 1014.6mb 68f 64f
11:50 6ft 10s 8s 9 11 mph 1014.3mb 68f 63f
10:50 6ft 16s 8s 9 11 mph 1014mb 67f 63f
9:50 6ft 16s 8s 7 9 mph 1013.7mb 67f 63f
8:50 6ft 10s 8s 9 11 mph 1013.4mb 67f 62f
7:50 6ft 9s 7s 9 11 mph 1013mb 67f 62f
6:50 6.5ft 10s 8s 9 11 mph 1012.7mb 66f 62f
5:50 6ft 9s 7s 11 16 mph 1012.5mb 66f 62f
4:50 6ft 9s 7s 11 13 mph 1012.1mb 66f 62f
3:50 6ft 9s 7s 13 18 mph 1012mb 66f 62f
2:50 6ft 10s 8s 9 13 mph 1012mb 67f 62f
1:50 6ft 10s 7s 9 11 mph 1012.3mb 67f 62f
12:50 6ft 16s 7s 13 18 mph 1012.3mb 67f 62f
mar. 07/28 11:50 6ft 16s 7s 16 20 mph 1012mb 67f 62f
10:50 5.5ft 16s 7s 18 20 mph 1011.8mb 67f 62f
9:50 6.5ft 16s 7s 18 22 mph 1011.2mb 67f 63f
8:50 6ft 10s 7s 18 22 mph 1010.6mb 68f 62f
7:50 6.5ft 16s 7s 18 20 mph 1010.5mb 68f 62f
6:50 7ft 16s 7s 16 20 mph 1010.4mb 68f 63f
5:50 6.5ft 10s 7s 16 20 mph 1010.4mb 69f 63f
4:50 7ft 8s 7s 16 18 mph 1010.8mb 69f 64f
3:50 6.5ft 9s 7s 13 16 mph 1011.3mb 69f 64f
2:50 7ft 9s 7s 9 11 mph 1012mb 68f 64f
1:50 6.5ft 8s 7s 9 13 mph 1012.2mb 68f 64f
12:50 6ft 17s 7s 9 11 mph 1012.4mb 67f 64f
11:50 6.5ft 8s 7s 7 9 mph 1012.6mb 67f 63f
10:50 7ft 9s 7s 4 7 mph 1012.5mb 67f 63f
9:50 7ft 17s 8s 2 4 mph 1012.5mb 67f 63f
8:50 7ft 8s 8s 9 11 mph 1012.3mb 66f 63f
7:50 7ft 9s 8s 11 13 mph 1012mb 66f 63f
6:50 7ft 8s 7s 11 13 mph 1011.7mb 65f 62f
5:50 7ft 8s 7s 13 18 mph 1011.3mb 65f 63f
4:50 7.5ft 9s 7s 16 20 mph 1011mb 65f 62f
3:50 8ft 9s 7s 16 18 mph 1010.8mb 65f 63f
2:50 7ft 8s 7s 18 20 mph 1011.1mb 65f 63f
1:50 7ft 8s 7s 18 22 mph 1011.4mb 65f 63f
12:50 7ft 10s 6s 20 25 mph 1011.5mb 66f 63f
lun. 07/27 11:50 7ft 10s 6s 22 27 mph 1011.6mb 66f 63f
10:50 7ft 11s 6s 22 27 mph 1011.9mb 66f 63f
9:50 7ft 8s 6s 22 27 mph 1011.9mb 66f 63f
8:50 7.5ft 9s 6s 22 27 mph 1011.5mb 67f 63f
7:50 7.5ft 9s 6s 22 25 mph 1011.5mb 67f 63f
6:50 8ft 8s 6s 20 25 mph 1011.1mb 67f 63f
5:50 8.5ft 8s 6s 22 27 mph 1011.1mb 67f 63f
4:50 8ft 8s 6s 20 27 mph 1011.5mb 67f 63f
3:50 7ft 10s 6s 20 27 mph 1012.1mb 67f 63f
2:50 7ft 9s 7s 18 22 mph 1012.7mb 67f 64f
1:50 6.5ft 8s 7s 18 20 mph 1013.1mb 67f 63f
12:50 6ft 11s 7s 13 18 mph 1013.7mb 67f 63f
11:50 6ft 8s 7s 13 16 mph 1013.9mb 66f 63f
10:50 7ft 8s 7s 9 11 mph 1013.9mb 66f 63f
9:50 6.5ft 8s 7s 11 16 mph 1013.8mb 66f 61f
8:50 7ft 9s 7s 16 18 mph 1013.5mb 66f 62f
7:50 7ft 8s 6s 16 20 mph 1013mb 66f 63f
6:50 6ft 8s 6s 18 22 mph 1012.6mb 66f 63f